Time;durP1;ratioP1;P1;durP2;ratioP2;P2;SDS_P1;SDS_P2;PMS_P1;PMS_P2;Temp;Humidity;BMP_temperature;BMP_pressure;BME280_temperature;BME280_humidity;BME280_pressure;Samples;Min_cycle;Max_cycle;Signal;HPM_P1;HPM_P2
2022/08/21 00:01:01;;;;;;;11.75;7.70;;;;;;;21.08;58.58;100685.03;5035949;28;20099;-73
2022/08/21 00:03:32;;;;;;;15.60;7.60;;;;;;;21.04;58.75;100696.25;5036469;28;20049;-73
2022/08/21 00:06:00;;;;;;;10.30;7.45;;;;;;;21.04;58.81;100701.94;5035925;28;20061;-73
2022/08/21 00:08:26;;;;;;;16.30;8.38;;;;;;;21.04;58.97;100712.47;5036066;28;20119;-73
2022/08/21 00:10:56;;;;;;;;;;;;;;;20.85;58.79;100712.13;5037578;28;20123;-72
2022/08/21 00:13:23;;;;;;;15.15;7.32;;;;;;;20.76;58.76;100669.63;5050245;28;19971;-73
2022/08/21 00:15:50;;;;;;;12.05;8.38;;;;;;;21.05;58.82;100709.28;5035747;28;20069;-73
2022/08/21 00:18:19;;;;;;;12.57;8.05;;;;;;;21.03;59.09;100710.81;5035143;28;20046;-73
2022/08/21 00:20:46;;;;;;;21.25;9.00;;;;;;;20.71;59.30;100658.47;5034616;28;20095;-72
2022/08/21 00:23:14;;;;;;;11.90;8.15;;;;;;;20.87;59.31;100689.91;5035874;28;20123;-73
2022/08/21 00:25:43;;;;;;;12.05;7.97;;;;;;;20.90;59.20;100692.88;5034932;28;20045;-73
2022/08/21 00:28:10;;;;;;;13.80;8.60;;;;;;;20.70;59.42;100662.50;5055076;28;20057;-72
2022/08/21 00:30:38;;;;;;;12.85;8.20;;;;;;;20.55;59.46;100641.28;5034191;28;20107;-73
2022/08/21 00:33:06;;;;;;;10.70;8.20;;;;;;;20.49;59.79;100657.63;5035075;28;20049;-73
2022/08/21 00:35:36;;;;;;;15.57;8.65;;;;;;;20.47;59.59;100645.78;5033415;28;20129;-72
2022/08/21 00:38:05;;;;;;;15.60;8.18;;;;;;;20.76;59.72;100698.00;5034004;28;20532;-72
2022/08/21 00:40:42;;;;;;;13.27;9.25;;;;;;;20.71;59.87;100687.69;5034887;28;20081;-72
2022/08/21 00:43:12;;;;;;;14.68;8.38;;;;;;;20.43;60.13;100641.97;5035638;28;20049;-73
2022/08/21 00:45:39;;;;;;;21.27;9.65;;;;;;;20.38;60.02;100645.03;5034207;28;20083;-73
2022/08/21 00:48:07;;;;;;;13.15;10.10;;;;;;;20.71;60.02;100701.03;5034383;28;20057;-72
2022/08/21 00:50:39;;;;;;;16.13;9.07;;;;;;;20.54;60.10;100677.28;5034709;28;20049;-73
2022/08/21 00:53:08;;;;;;;13.55;9.63;;;;;;;20.59;60.15;100682.78;5034793;28;20058;-73
2022/08/21 00:55:36;;;;;;;10.52;8.90;;;;;;;20.58;60.25;100683.09;5034852;28;20111;-73
2022/08/21 00:58:07;;;;;;;16.90;13.45;;;;;;;20.27;60.31;100636.09;5034555;28;20059;-73
2022/08/21 01:00:38;;;;;;;12.50;8.55;;;;;;;20.54;60.41;100682.13;5035165;28;20053;-73
2022/08/21 01:03:11;;;;;;;17.00;8.80;;;;;;;20.50;60.44;100682.00;5034619;28;20049;-73
2022/08/21 01:05:40;;;;;;;13.18;8.88;;;;;;;20.57;60.35;100676.59;5033936;28;20042;-73
2022/08/21 01:08:09;;;;;;;11.27;8.27;;;;;;;20.31;60.50;100639.06;5034611;28;20053;-73
2022/08/21 01:10:36;;;;;;;16.55;8.05;;;;;;;20.52;60.25;100667.50;5034624;28;20045;-73
2022/08/21 01:13:07;;;;;;;11.95;8.02;;;;;;;20.59;60.30;100681.94;5034152;28;20571;-73
2022/08/21 01:15:37;;;;;;;15.27;7.40;;;;;;;20.50;60.49;100679.16;5034117;28;20131;-73
2022/08/21 01:18:08;;;;;;;11.98;7.70;;;;;;;20.39;60.67;100669.38;5034709;28;20089;-73
2022/08/21 01:20:37;;;;;;;14.23;8.77;;;;;;;20.33;60.76;100656.56;5034052;28;20072;-72
2022/08/21 01:23:05;;;;;;;12.95;7.40;;;;;;;20.44;60.86;100677.66;5033966;28;20079;-72
2022/08/21 01:25:34;;;;;;;18.75;8.18;;;;;;;20.08;60.58;100633.72;5034263;28;20461;-72
2022/08/21 01:28:13;;;;;;;15.02;8.35;;;;;;;20.07;60.79;100629.22;5032822;28;20083;-73
2022/08/21 01:30:42;;;;;;;11.23;7.72;;;;;;;20.24;60.90;100667.13;5033753;28;20580;-73
2022/08/21 01:33:09;;;;;;;14.32;9.65;;;;;;;20.20;60.99;100660.47;5034142;28;20548;-71
2022/08/21 01:35:37;;;;;;;9.25;7.50;;;;;;;20.01;61.04;100626.94;5034133;28;20128;-72
2022/08/21 01:38:04;;;;;;;12.80;7.65;;;;;;;20.30;61.22;100671.44;5034040;28;20465;-72
2022/08/21 01:40:31;;;;;;;8.80;7.53;;;;;;;20.38;61.33;100679.06;5033629;28;20084;-72
2022/08/21 01:42:57;;;;;;;11.60;8.43;;;;;;;20.01;61.56;100626.94;5033846;28;20489;-72
2022/08/21 01:45:24;;;;;;;17.10;8.65;;;;;;;20.16;61.20;100643.31;5033874;28;20577;-72
2022/08/21 01:47:51;;;;;;;17.58;9.20;;;;;;;20.30;61.32;100665.75;5033611;28;20494;-72
2022/08/21 01:50:20;;;;;;;10.43;7.85;;;;;;;20.02;61.42;100617.25;5033836;28;20443;-72
2022/08/21 01:52:47;;;;;;;10.40;8.20;;;;;;;20.25;61.48;100657.47;5034221;28;20076;-73
2022/08/21 01:55:15;;;;;;;10.95;8.13;;;;;;;20.40;61.40;100673.88;5033498;28;20046;-72
2022/08/21 01:57:43;;;;;;;13.93;8.65;;;;;;;20.34;61.20;100661.06;5033636;28;20198;-72
2022/08/21 02:00:13;;;;;;;13.88;7.97;;;;;;;20.22;61.41;100646.81;5033227;28;20057;-73
2022/08/21 02:02:41;;;;;;;13.68;8.05;;;;;;;20.35;61.64;100679.75;5032478;28;20223;-73
2022/08/21 02:05:10;;;;;;;13.90;7.95;;;;;;;20.36;61.54;100684.25;5033395;28;20583;-72
2022/08/21 02:07:39;;;;;;;10.20;8.15;;;;;;;20.00;61.27;100628.94;5033142;28;20077;-72
2022/08/21 02:10:09;;;;;;;13.93;8.05;;;;;;;20.17;61.60;100656.34;5052165;28;20053;-72
2022/08/21 02:12:36;;;;;;;9.85;7.60;;;;;;;20.13;61.55;100663.84;5051811;28;20052;-72
2022/08/21 02:15:04;;;;;;;9.27;8.18;;;;;;;20.22;61.44;100663.81;5052773;28;20084;-71
2022/08/21 02:17:44;;;;;;;11.93;8.52;;;;;;;20.17;61.46;100664.00;5041752;28;20077;-72
2022/08/21 02:20:16;;;;;;;12.35;8.63;;;;;;;20.13;61.48;100659.00;5033146;28;20075;-72
2022/08/21 02:22:43;;;;;;;23.38;8.50;;;;;;;20.19;61.69;100665.31;5033095;28;20508;-72
2022/08/21 02:25:11;;;;;;;12.93;7.90;;;;;;;20.24;61.58;100672.78;5033802;28;20041;-72
2022/08/21 02:27:44;;;;;;;13.90;7.68;;;;;;;19.92;61.93;100617.63;5031917;28;20087;-71
2022/08/21 02:30:18;;;;;;;14.27;8.18;;;;;;;20.13;61.77;100653.34;5032979;28;20468;-72
2022/08/21 02:32:45;;;;;;;11.55;8.30;;;;;;;19.70;61.60;100590.44;5032926;28;20045;-73
2022/08/21 02:35:13;;;;;;;14.13;9.48;;;;;;;20.23;61.71;100656.97;5033071;28;20111;-73
2022/08/21 02:37:58;;;;;;;22.40;9.52;;;;;;;19.72;61.88;100571.91;5032679;28;20564;-72
2022/08/21 02:40:28;;;;;;;13.48;8.45;;;;;;;20.12;61.79;100631.84;5032835;28;20115;-72
2022/08/21 02:42:55;;;;;;;20.38;8.48;;;;;;;20.24;62.09;100652.94;5032905;28;20053;-72
2022/08/21 02:45:22;;;;;;;10.45;7.63;;;;;;;20.22;61.92;100635.47;5032500;28;20068;-73
2022/08/21 02:48:02;;;;;;;14.00;8.02;;;;;;;20.30;62.16;100643.06;5032672;28;20049;-73
2022/08/21 02:50:33;;;;;;;9.57;7.80;;;;;;;20.31;61.80;100648.41;5033124;28;20069;-73
2022/08/21 02:53:00;;;;;;;14.80;8.30;;;;;;;20.34;61.95;100652.53;5034060;28;20465;-74
2022/08/21 02:55:29;;;;;;;10.82;8.00;;;;;;;19.98;61.69;100585.91;5036322;28;20490;-71
2022/08/21 02:57:58;;;;;;;11.10;7.93;;;;;;;19.99;61.80;100600.91;5031396;28;20466;-72
2022/08/21 03:00:27;;;;;;;13.75;8.20;;;;;;;20.10;62.04;100622.00;5033077;28;20302;-73
2022/08/21 03:02:58;;;;;;;13.57;8.40;;;;;;;20.13;62.04;100650.50;5032659;28;20077;-73
2022/08/21 03:05:27;;;;;;;12.15;8.85;;;;;;;19.73;62.05;100575.59;5033181;28;20100;-73
2022/08/21 03:07:54;;;;;;;13.90;8.77;;;;;;;20.01;62.01;100622.09;5047830;28;20076;-73
2022/08/21 03:10:22;;;;;;;18.73;8.75;;;;;;;20.19;62.06;100644.66;5032394;28;20490;-73
2022/08/21 03:12:49;;;;;;;10.20;8.27;;;;;;;20.03;62.09;100625.41;5032369;28;20502;-73
2022/08/21 03:15:20;;;;;;;10.90;8.10;;;;;;;20.15;62.10;100652.19;5032283;28;20045;-73
2022/08/21 03:17:48;;;;;;;8.98;8.15;;;;;;;20.12;62.05;100651.69;5031391;28;20049;-73
2022/08/21 03:20:17;;;;;;;8.73;7.85;;;;;;;20.07;62.21;100657.56;5032244;28;20556;-73
2022/08/21 03:22:44;;;;;;;15.70;9.23;;;;;;;19.73;62.13;100601.91;5029136;28;20049;-72
2022/08/21 03:25:20;;;;;;;11.60;8.50;;;;;;;20.08;61.87;100656.38;5032476;28;20464;-72
2022/08/21 03:28:09;;;;;;;13.48;8.15;;;;;;;19.82;61.85;100605.50;5031954;28;20132;-73
2022/08/21 03:30:40;;;;;;;13.88;8.63;;;;;;;19.51;61.74;100557.66;5035970;28;20046;-72
2022/08/21 03:33:08;;;;;;;10.90;8.20;;;;;;;20.09;62.06;100658.03;5038047;28;20084;-73
2022/08/21 03:35:40;;;;;;;13.30;8.45;;;;;;;19.91;61.99;100625.31;5039495;28;20046;-73
2022/08/21 03:38:07;;;;;;;10.18;8.20;;;;;;;20.05;62.40;100651.41;5034878;28;20107;-73
2022/08/21 03:40:34;;;;;;;9.80;8.82;;;;;;;19.67;62.20;100574.94;5036220;28;20088;-73
2022/08/21 03:43:01;;;;;;;11.98;8.68;;;;;;;19.95;62.21;100626.28;5036182;28;20085;-73
2022/08/21 03:45:28;;;;;;;15.35;8.48;;;;;;;20.09;62.42;100649.53;5035833;28;20549;-73
2022/08/21 03:48:02;;;;;;;10.48;8.70;;;;;;;20.11;62.41;100641.53;5035694;28;20049;-73
2022/08/21 03:50:33;;;;;;;15.45;9.68;;;;;;;20.09;62.55;100635.38;5036171;28;20049;-73
2022/08/21 03:53:06;;;;;;;10.55;9.00;;;;;;;20.04;62.92;100631.91;5035965;28;20115;-72
2022/08/21 03:55:33;;;;;;;11.70;8.55;;;;;;;20.08;62.92;100655.56;5035483;28;20088;-73
2022/08/21 03:58:00;;;;;;;15.10;8.75;;;;;;;19.80;62.81;100624.03;5035650;28;20053;-72
2022/08/21 04:00:43;;;;;;;11.35;8.52;;;;;;;19.91;62.65;100655.66;5048912;28;20061;-73
2022/08/21 04:03:10;;;;;;;9.63;7.80;;;;;;;19.84;62.59;100650.53;5051084;28;20453;-72
2022/08/21 04:05:37;;;;;;;17.65;8.57;;;;;;;19.91;62.52;100667.81;5035855;28;20045;-73
2022/08/21 04:08:05;;;;;;;18.77;10.68;;;;;;;19.87;62.76;100647.00;5046204;28;20167;-73
2022/08/21 04:10:36;;;;;;;16.92;9.00;;;;;;;19.74;62.49;100611.25;5055565;28;20554;-73
2022/08/21 04:13:07;;;;;;;15.48;9.88;;;;;;;19.98;62.92;100658.78;5055371;28;20110;-73
2022/08/21 04:15:38;;;;;;;13.07;8.48;;;;;;;19.94;62.70;100658.63;5055372;28;20077;-73
2022/08/21 04:18:17;;;;;;;10.57;8.63;;;;;;;19.82;62.74;100650.03;5055444;28;20072;-73
2022/08/21 04:20:47;;;;;;;11.07;8.27;;;;;;;19.81;62.88;100668.19;5055093;28;20096;-73
2022/08/21 04:23:18;;;;;;;11.02;8.00;;;;;;;19.78;63.01;100678.22;5055027;28;20045;-73
2022/08/21 04:25:51;;;;;;;15.40;8.88;;;;;;;19.74;63.06;100674.41;5054414;28;20049;-73
2022/08/21 04:28:19;;;;;;;14.98;8.43;;;;;;;19.32;63.13;100606.22;5038971;28;20451;-73
2022/08/21 04:30:46;;;;;;;13.85;8.43;;;;;;;19.74;63.33;100680.06;5034110;28;20049;-73
2022/08/21 04:33:13;;;;;;;14.27;9.10;;;;;;;19.65;63.22;100660.25;5032499;28;20069;-74
2022/08/21 04:35:41;;;;;;;10.95;8.32;;;;;;;19.57;63.62;100654.59;5033945;28;20163;-73
2022/08/21 04:38:08;;;;;;;18.25;9.70;;;;;;;19.64;63.65;100669.94;5034037;28;20099;-73
2022/08/21 04:40:36;;;;;;;12.80;11.05;;;;;;;19.71;63.97;100666.56;5032368;28;20104;-72
2022/08/21 04:43:09;;;;;;;11.93;8.70;;;;;;;19.69;63.78;100663.25;5034082;28;20072;-73
2022/08/21 04:45:47;;;;;;;13.50;8.20;;;;;;;19.61;63.48;100661.25;5033585;28;20559;-73
2022/08/21 04:48:17;;;;;;;14.07;10.80;;;;;;;19.49;64.00;100641.31;5033743;28;20053;-72
2022/08/21 04:50:53;;;;;;;;;;;;;;;19.44;63.65;100664.97;5033743;28;20111;-73
2022/08/21 04:53:33;;;;;;;12.63;9.40;;;;;;;19.61;63.47;100669.75;5032506;28;19961;-72
2022/08/21 04:56:08;;;;;;;11.95;8.35;;;;;;;19.43;63.73;100637.81;5033328;28;20084;-71
2022/08/21 04:58:38;;;;;;;17.52;8.63;;;;;;;19.21;63.37;100589.91;5033969;28;20537;-72
2022/08/21 05:01:11;;;;;;;9.15;8.05;;;;;;;19.72;63.52;100667.41;5033294;28;20056;-72
2022/08/21 05:03:40;;;;;;;11.45;8.60;;;;;;;19.68;63.56;100667.25;5033643;28;20460;-72
2022/08/21 05:06:10;;;;;;;11.90;8.30;;;;;;;19.54;63.75;100658.13;5033085;28;20060;-72
2022/08/21 05:08:39;;;;;;;14.25;8.02;;;;;;;19.55;63.54;100665.44;5033340;28;20053;-73
2022/08/21 05:11:06;;;;;;;12.90;8.90;;;;;;;18.94;63.91;100575.84;5033430;28;20046;-73
2022/08/21 05:13:33;;;;;;;9.95;7.72;;;;;;;19.51;63.76;100673.78;5033582;28;20049;-74
2022/08/21 05:16:00;;;;;;;12.25;8.25;;;;;;;19.32;63.63;100636.53;5021020;28;20502;-73
2022/08/21 05:18:27;;;;;;;12.75;8.20;;;;;;;19.36;63.46;100640.34;5013689;28;20104;-74
2022/08/21 05:20:54;;;;;;;18.33;7.68;;;;;;;19.52;63.61;100683.09;5013128;28;20092;-73
2022/08/21 05:23:20;;;;;;;12.23;9.23;;;;;;;19.48;63.66;100668.78;5028216;28;20514;-73
2022/08/21 05:25:48;;;;;;;14.82;8.13;;;;;;;19.52;63.21;100660.44;5034388;28;20042;-73
2022/08/21 05:28:14;;;;;;;14.57;8.85;;;;;;;19.56;63.24;100673.59;4990369;28;1216194;-73
2022/08/21 05:30:41;;;;;;;11.20;8.73;;;;;;;19.61;63.39;100670.56;5033781;28;20073;-73
2022/08/21 05:33:08;;;;;;;16.60;9.63;;;;;;;19.58;63.36;100662.75;5045863;28;20045;-73
2022/08/21 05:35:36;;;;;;;16.58;8.80;;;;;;;19.65;63.40;100670.75;5047045;28;20073;-73
2022/08/21 05:38:04;;;;;;;15.27;8.48;;;;;;;19.65;63.54;100684.91;5023069;28;20435;-72
2022/08/21 05:40:32;;;;;;;11.43;8.00;;;;;;;19.59;63.70;100681.44;5033597;28;20502;-72
2022/08/21 05:43:00;;;;;;;11.93;7.20;;;;;;;19.35;63.84;100656.50;5033128;28;20080;-72
2022/08/21 05:45:30;;;;;;;11.48;7.68;;;;;;;19.14;63.80;100642.25;5032253;28;20561;-74
2022/08/21 05:48:15;;;;;;;12.13;8.20;;;;;;;19.36;64.13;100678.00;5023818;28;20046;-73
2022/08/21 05:50:44;;;;;;;16.65;7.40;;;;;;;19.47;64.14;100705.94;5033992;28;20138;-72
2022/08/21 05:53:13;;;;;;;7.93;6.77;;;;;;;18.77;63.88;100607.00;5032810;28;20076;-73
2022/08/21 05:55:41;;;;;;;16.83;8.38;;;;;;;19.23;64.02;100667.69;5033162;28;20286;-73
2022/08/21 05:58:17;;;;;;;14.52;8.95;;;;;;;19.29;64.38;100679.69;5032100;28;20054;-73
2022/08/21 06:00:47;;;;;;;16.02;9.27;;;;;;;19.23;64.62;100675.34;5033070;28;20049;-73
2022/08/21 06:03:21;;;;;;;;;;;;;;;19.31;64.53;100720.63;5033336;28;20045;-74
2022/08/21 06:05:48;;;;;;;15.38;10.90;;;;;;;19.27;64.36;100673.50;5033689;28;20377;-73
2022/08/21 06:08:17;;;;;;;22.02;10.30;;;;;;;19.52;64.36;100712.28;5033084;28;20490;-73
2022/08/21 06:10:45;;;;;;;29.45;11.82;;;;;;;19.65;64.45;100721.75;5033492;28;20179;-72
2022/08/21 06:13:13;;;;;;;27.90;11.65;;;;;;;19.63;65.03;100719.28;5033279;28;20087;-72
2022/08/21 06:15:40;;;;;;;17.92;11.23;;;;;;;19.81;64.87;100739.06;5031878;28;20850;-73
2022/08/21 06:18:07;;;;;;;21.98;10.63;;;;;;;19.94;64.22;100752.19;5048216;28;20084;-72
2022/08/21 06:20:34;;;;;;;30.60;12.68;;;;;;;19.44;64.23;100662.13;5033272;28;20077;-73
2022/08/21 06:23:01;;;;;;;20.83;12.57;;;;;;;19.90;64.13;100725.69;5033908;28;20084;-73
2022/08/21 06:25:28;;;;;;;18.17;10.50;;;;;;;19.51;64.24;100664.44;5032884;28;20049;-74
2022/08/21 06:28:05;;;;;;;18.70;12.02;;;;;;;20.04;63.71;100743.28;5032425;28;20072;-74
2022/08/21 06:30:32;;;;;;;20.48;13.98;;;;;;;20.18;63.77;100767.75;5033103;28;20395;-73
2022/08/21 06:32:59;;;;;;;19.60;11.07;;;;;;;20.18;63.93;100762.09;5032786;28;20099;-74
2022/08/21 06:35:28;;;;;;;21.10;11.73;;;;;;;20.18;63.61;100762.09;5032959;28;20128;-75
2022/08/21 06:37:57;;;;;;;25.05;12.15;;;;;;;20.03;63.52;100726.63;5032631;28;20048;-75
2022/08/21 06:40:25;;;;;;;23.90;12.05;;;;;;;20.19;63.30;100752.41;5033011;28;20095;-73
2022/08/21 06:42:56;;;;;;;22.83;11.93;;;;;;;19.98;63.30;100719.13;5032625;28;20111;-74
2022/08/21 06:45:24;;;;;;;22.63;11.52;;;;;;;19.95;63.38;100721.81;5032634;28;20103;-73
2022/08/21 06:47:53;;;;;;;20.27;12.55;;;;;;;20.13;63.20;100755.41;5032570;28;20517;-73
2022/08/21 06:50:20;;;;;;;24.75;12.82;;;;;;;20.23;63.24;100774.06;5032398;28;20050;-73
2022/08/21 06:52:47;;;;;;;23.85;12.13;;;;;;;20.04;63.34;100743.28;5032328;28;20103;-73
2022/08/21 06:55:14;;;;;;;19.38;12.68;;;;;;;20.33;63.62;100784.19;5032412;28;20045;-74
2022/08/21 06:57:48;;;;;;;21.52;12.57;;;;;;;19.80;63.14;100707.06;5032844;28;20080;-73
2022/08/21 07:00:18;;;;;;;;;;;;;;;20.35;62.77;100777.00;5032870;28;20136;-72
2022/08/21 07:02:45;;;;;;;21.30;12.65;;;;;;;20.28;63.33;100764.53;5032795;28;20363;-73
2022/08/21 07:05:12;;;;;;;18.08;13.60;;;;;;;20.38;63.45;100775.50;5033990;28;20107;-73
2022/08/21 07:07:44;;;;;;;22.80;13.27;;;;;;;20.47;63.57;100778.28;5036497;28;20046;-73
2022/08/21 07:10:11;;;;;;;19.10;12.25;;;;;;;20.37;63.30;100762.47;5036402;28;20242;-73
2022/08/21 07:12:48;;;;;;;24.13;13.02;;;;;;;20.04;63.52;100685.78;5036362;28;20053;-72
2022/08/21 07:15:16;;;;;;;29.23;14.63;;;;;;;20.69;63.18;100783.69;5051413;28;20052;-73
2022/08/21 07:17:43;;;;;;;40.53;14.40;;;;;;;20.68;63.06;100776.34;5051818;28;20053;-73
2022/08/21 07:20:11;;;;;;;26.65;13.27;;;;;;;20.22;62.90;100681.66;5036490;28;20113;-72
2022/08/21 07:22:40;;;;;;;24.55;13.60;;;;;;;20.82;63.33;100757.06;5036412;28;20103;-73
2022/08/21 07:25:08;;;;;;;28.25;15.13;;;;;;;21.09;63.32;100780.38;5036089;28;20092;-73
2022/08/21 07:27:35;;;;;;;28.83;14.18;;;;;;;21.16;63.08;100759.97;5036280;28;20073;-74
2022/08/21 07:30:03;;;;;;;23.05;14.15;;;;;;;21.57;62.82;100767.63;5035848;28;20088;-73
2022/08/21 07:32:30;;;;;;;16.05;12.63;;;;;;;22.02;62.47;100781.03;5036856;28;20107;-73
2022/08/21 07:34:57;;;;;;;21.17;11.23;;;;;;;22.29;61.53;100793.78;5036160;28;20049;-73
2022/08/21 07:37:24;;;;;;;20.77;12.68;;;;;;;21.99;60.98;100714.31;5036097;28;20073;-73
2022/08/21 07:39:51;;;;;;;20.05;12.27;;;;;;;22.18;60.83;100738.50;5035937;28;20088;-73
2022/08/21 07:42:18;;;;;;;20.30;12.05;;;;;;;22.75;59.94;100773.72;5035788;28;20436;-73
2022/08/21 07:44:45;;;;;;;18.65;11.73;;;;;;;23.07;60.00;100791.84;5036198;28;20053;-74
2022/08/21 07:47:15;;;;;;;20.45;12.95;;;;;;;23.08;58.92;100747.94;5036066;28;20045;-74
2022/08/21 07:50:02;;;;;;;22.77;12.02;;;;;;;23.69;58.84;100789.63;5035775;28;20139;-75
2022/08/21 07:52:30;;;;;;;21.25;13.07;;;;;;;24.12;58.48;100798.16;5035831;28;20050;-74
2022/08/21 07:54:59;;;;;;;22.33;11.48;;;;;;;24.09;58.14;100776.06;5035604;28;20136;-74
2022/08/21 07:57:32;;;;;;;22.02;12.88;;;;;;;24.49;57.25;100797.13;5035660;28;20129;-74
2022/08/21 07:59:59;;;;;;;20.40;13.93;;;;;;;24.62;56.02;100769.28;5034424;28;20556;-73
2022/08/21 08:02:28;;;;;;;13.38;11.27;;;;;;;25.41;55.16;100803.38;5050780;28;20103;-74
2022/08/21 08:05:05;;;;;;;17.38;11.55;;;;;;;25.70;54.35;100813.34;5036504;28;20080;-74
2022/08/21 08:07:32;;;;;;;12.80;11.30;;;;;;;26.14;53.59;100810.97;5035321;28;20497;-74
2022/08/21 08:09:59;;;;;;;19.27;11.65;;;;;;;26.33;53.23;100806.41;5035787;28;20045;-75
2022/08/21 08:12:29;;;;;;;20.98;14.63;;;;;;;26.35;52.04;100787.63;5035445;28;20107;-75
2022/08/21 08:14:57;;;;;;;15.82;11.20;;;;;;;26.50;51.30;100790.78;5034249;28;20456;-74
2022/08/21 08:17:25;;;;;;;20.42;11.48;;;;;;;26.64;51.33;100788.97;5035375;28;20049;-74
2022/08/21 08:19:53;;;;;;;15.95;11.27;;;;;;;27.12;50.90;100792.19;5035495;28;20085;-74
2022/08/21 08:22:25;;;;;;;14.35;9.57;;;;;;;27.20;49.84;100749.28;5036036;28;20084;-75
2022/08/21 08:24:53;;;;;;;18.30;11.15;;;;;;;27.59;49.31;100744.88;5035046;28;20072;-74
2022/08/21 08:27:21;;;;;;;15.32;10.15;;;;;;;27.87;48.73;100740.69;5035076;28;20131;-75
2022/08/21 08:29:49;;;;;;;12.40;9.68;;;;;;;28.27;47.96;100771.44;5033660;28;20081;-75
2022/08/21 08:32:15;;;;;;;11.63;9.77;;;;;;;28.62;47.19;100786.53;5034975;28;20077;-75
2022/08/21 08:34:43;;;;;;;16.52;10.13;;;;;;;28.83;46.40;100778.03;5033726;28;20572;-74
2022/08/21 08:37:10;;;;;;;12.50;10.43;;;;;;;28.86;46.48;100779.31;5034835;28;20081;-74
2022/08/21 08:39:37;;;;;;;15.65;12.73;;;;;;;28.81;46.00;100746.81;5034583;28;20049;-75
2022/08/21 08:42:13;;;;;;;15.75;11.07;;;;;;;29.18;45.33;100783.22;5033976;28;20049;-75
2022/08/21 08:45:16;;;;;;;13.02;11.82;;;;;;;29.14;45.95;100778.69;5034857;28;20049;-75
2022/08/21 08:47:58;;;;;;;12.52;10.35;;;;;;;29.39;45.22;100782.50;5035172;28;20543;-75
2022/08/21 08:50:43;;;;;;;14.60;9.70;;;;;;;29.42;45.00;100763.59;5034793;28;20080;-74
2022/08/21 08:53:21;;;;;;;19.02;13.35;;;;;;;28.95;44.74;100711.56;5034588;28;20053;-75
2022/08/21 08:55:52;;;;;;;17.00;10.45;;;;;;;29.19;44.39;100778.28;5035197;28;20580;-73
2022/08/21 08:58:26;;;;;;;13.43;10.35;;;;;;;29.02;44.18;100768.31;5034685;28;20049;-75
2022/08/21 09:00:55;;;;;;;15.90;10.40;;;;;;;29.04;44.82;100777.38;5034894;28;20049;-74
2022/08/21 09:03:26;;;;;;;20.07;10.63;;;;;;;29.34;44.31;100794.41;5034418;28;20050;-73
2022/08/21 09:06:02;;;;;;;12.90;9.25;;;;;;;29.75;43.65;100789.25;5034640;28;20053;-73
2022/08/21 09:09:01;;;;;;;14.13;10.40;;;;;;;29.87;43.64;100727.56;5034346;28;20099;-74
2022/08/21 09:11:40;;;;;;;12.90;8.80;;;;;;;30.65;42.25;100786.50;5034394;28;20077;-74
2022/08/21 09:14:16;;;;;;;19.50;10.30;;;;;;;30.73;42.03;100781.56;5046388;28;20049;-73
2022/08/21 09:16:46;;;;;;;16.60;9.77;;;;;;;31.12;41.40;100793.06;5054145;28;20551;-73
2022/08/21 09:19:45;;;;;;;17.27;10.02;;;;;;;31.37;41.19;100790.94;5053999;28;20048;-74
2022/08/21 09:22:42;;;;;;;11.20;9.35;;;;;;;31.75;40.66;100785.41;5054114;28;20099;-75
2022/08/21 09:25:23;;;;;;;10.95;9.40;;;;;;;31.46;39.86;100715.47;5054167;28;20096;-73
2022/08/21 09:27:50;;;;;;;13.48;8.57;;;;;;;31.85;39.25;100778.75;5053456;28;20417;-74
2022/08/21 09:30:19;;;;;;;10.48;8.32;;;;;;;31.99;38.72;100777.88;5053309;28;20083;-74
2022/08/21 09:32:46;;;;;;;9.18;8.38;;;;;;;31.93;38.33;100755.63;5054189;28;20089;-75
2022/08/21 09:35:20;;;;;;;8.43;7.65;;;;;;;32.28;37.55;100795.84;5041010;28;20081;-74
2022/08/21 09:37:57;;;;;;;9.55;8.13;;;;;;;32.63;37.30;100785.25;5034128;28;20056;-74
2022/08/21 09:40:36;;;;;;;10.52;7.95;;;;;;;32.82;36.88;100765.66;5020963;28;20092;-74
2022/08/21 09:43:05;;;;;;;9.18;8.18;;;;;;;33.09;36.05;100781.09;5014656;28;20052;-74
2022/08/21 09:45:33;;;;;;;9.57;8.77;;;;;;;33.09;35.86;100774.50;5014530;28;20052;-73
2022/08/21 09:48:19;;;;;;;10.90;9.65;;;;;;;32.95;36.37;100781.22;5026407;28;20115;-73
2022/08/21 09:50:49;;;;;;;9.38;7.22;;;;;;;33.16;35.29;100775.22;5034794;28;20127;-74
2022/08/21 09:53:29;;;;;;;;;;;;;;;33.22;37.22;100785.09;5034621;28;20049;-73
2022/08/21 09:59:01;;;;;;;7.85;7.15;;;;;;;33.56;34.54;100787.19;5032932;28;20494;-73
2022/08/21 10:01:28;;;;;;;8.85;8.05;;;;;;;33.62;34.28;100784.63;5032139;28;20053;-73
2022/08/21 10:04:07;;;;;;;9.90;8.52;;;;;;;33.71;34.19;100784.91;5034011;28;20073;-74
2022/08/21 10:06:34;;;;;;;9.10;8.25;;;;;;;33.85;33.63;100793.44;5034066;28;20084;-74
2022/08/21 10:09:04;;;;;;;9.07;7.50;;;;;;;33.85;33.51;100781.84;5033517;28;20054;-74
2022/08/21 10:11:33;;;;;;;8.10;7.40;;;;;;;33.36;32.98;100700.16;5033900;28;20089;-75
2022/08/21 10:14:12;;;;;;;9.05;7.20;;;;;;;34.06;32.92;100795.22;5032633;28;20470;-75
2022/08/21 10:17:12;;;;;;;8.32;7.47;;;;;;;34.11;33.69;100780.22;5034018;28;20084;-75
2022/08/21 10:19:45;;;;;;;8.77;7.85;;;;;;;34.27;33.18;100794.06;5033334;28;20084;-74
2022/08/21 10:22:51;;;;;;;11.93;10.77;;;;;;;34.31;33.07;100785.31;5033156;28;20057;-74
2022/08/21 10:25:31;;;;;;;9.13;7.30;;;;;;;34.51;32.81;100776.69;5032759;28;20046;-74
2022/08/21 10:27:57;;;;;;;;;;;;;;;34.26;33.90;100780.00;5033127;28;20050;-75
2022/08/21 10:30:49;;;;;;;23.83;17.35;;;;;;;34.37;33.32;100780.66;5032947;28;20016;-74
2022/08/21 10:33:41;;;;;;;16.55;8.70;;;;;;;34.49;32.95;100785.81;5032769;28;20045;-74
2022/08/21 10:36:20;;;;;;;13.18;9.75;;;;;;;34.55;33.07;100780.38;5031996;28;20107;-75
2022/08/21 10:39:16;;;;;;;13.55;12.18;;;;;;;34.64;32.97;100778.56;5033404;28;20076;-75
2022/08/21 10:42:21;;;;;;;10.65;9.55;;;;;;;34.69;32.92;100771.44;5032758;28;20136;-75
2022/08/21 10:45:05;;;;;;;8.32;7.53;;;;;;;34.59;32.37;100744.25;5032974;28;20133;-73
2022/08/21 10:47:46;;;;;;;9.45;7.40;;;;;;;34.64;31.98;100734.25;5032727;28;20049;-74
2022/08/21 10:50:25;;;;;;;12.57;11.27;;;;;;;34.57;32.18;100723.59;5032529;28;20045;-74
2022/08/21 10:52:59;;;;;;;10.35;9.32;;;;;;;34.87;32.06;100747.88;5032495;28;20497;-73
2022/08/21 10:55:41;;;;;;;10.65;8.15;;;;;;;34.66;31.64;100743.31;5033548;28;20175;-74
2022/08/21 10:58:11;;;;;;;8.23;7.40;;;;;;;35.09;31.01;100757.03;5013087;28;20059;-74
2022/08/21 11:00:41;;;;;;;8.85;8.07;;;;;;;35.83;29.43;100756.69;5013274;28;20053;-74
2022/08/21 11:04:04;;;;;;;10.95;9.95;;;;;;;36.57;29.37;100755.38;5012805;28;20060;-74
2022/08/21 11:06:32;;;;;;;8.15;7.55;;;;;;;37.18;28.16;100752.47;4980701;28;20057;-75
2022/08/21 11:09:17;;;;;;;7.45;6.90;;;;;;;36.92;29.02;100727.41;5030643;28;20085;-75
2022/08/21 11:12:05;;;;;;;7.18;6.57;;;;;;;36.88;28.31;100747.88;5032486;28;20494;-73
2022/08/21 11:15:05;;;;;;;8.02;6.60;;;;;;;36.41;29.65;100741.63;5052381;28;20095;-74
2022/08/21 11:17:41;;;;;;;6.80;6.20;;;;;;;36.19;29.47;100738.44;5052375;28;20114;-73
2022/08/21 11:20:16;;;;;;;7.63;6.85;;;;;;;35.99;30.16;100748.03;5052586;28;20136;-74
2022/08/21 11:23:11;;;;;;;9.75;9.05;;;;;;;35.83;30.45;100737.22;5052398;28;20084;-74
2022/08/21 11:25:44;;;;;;;7.72;6.93;;;;;;;35.96;29.93;100745.19;5052786;28;20464;-74
2022/08/21 11:28:21;;;;;;;6.38;5.75;;;;;;;35.90;30.29;100756.56;5052674;28;20076;-75
2022/08/21 11:31:13;;;;;;;6.63;6.03;;;;;;;35.97;30.37;100746.84;5051556;28;20048;-73
2022/08/21 11:34:27;;;;;;;6.93;6.32;;;;;;;35.95;30.59;100753.09;5052607;28;20448;-74
2022/08/21 11:37:27;;;;;;;6.45;5.90;;;;;;;36.04;30.18;100747.53;5047551;28;20053;-74
2022/08/21 11:40:05;;;;;;;9.60;6.45;;;;;;;36.21;30.24;100738.84;5057991;28;20095;-73
2022/08/21 11:42:50;;;;;;;;;;;;;;;35.94;31.15;100757.28;5054648;28;20052;-74